Time;durP1;ratioP1;P1;durP2;ratioP2;P2;SDS_P1;SDS_P2;PMS_P1;PMS_P2;Temp;Humidity;BMP_temperature;BMP_pressure;BME280_temperature;BME280_humidity;BME280_pressure;Samples;Min_cycle;Max_cycle;Signal;HPM_P1;HPM_P2
2021/11/10 00:00:10;;;;;;;15.35;1.88;;;29.40;25.90;;;;;;5066453;28;20108;-60
2021/11/10 00:02:36;;;;;;;16.95;2.08;;;29.40;24.90;;;;;;5064941;28;20163;-60
2021/11/10 00:05:04;;;;;;;12.15;2.17;;;29.30;25.00;;;;;;5062880;28;20104;-58
2021/11/10 00:07:31;;;;;;;10.50;1.50;;;29.30;24.80;;;;;;5064453;28;20126;-59
2021/11/10 00:09:57;;;;;;;11.23;1.75;;;29.30;25.00;;;;;;5064678;28;20069;-59
2021/11/10 00:12:24;;;;;;;11.80;1.88;;;29.30;24.90;;;;;;5053521;28;20085;-62
2021/11/10 00:14:50;;;;;;;10.73;1.88;;;29.20;24.90;;;;;;5064228;28;20096;-62
2021/11/10 00:17:16;;;;;;;10.93;1.98;;;29.20;25.20;;;;;;5053644;28;20075;-60
2021/11/10 00:19:43;;;;;;;10.98;1.70;;;29.20;25.40;;;;;;5040418;28;20123;-63
2021/11/10 00:22:09;;;;;;;20.58;2.67;;;29.10;25.40;;;;;;5035854;28;20073;-61
2021/11/10 00:24:36;;;;;;;20.70;1.95;;;29.10;26.10;;;;;;5072244;28;20453;-61
2021/11/10 00:27:02;;;;;;;17.50;2.05;;;29.00;26.90;;;;;;5063354;28;20088;-59
2021/11/10 00:29:29;;;;;;;31.38;2.83;;;28.90;27.80;;;;;;5084194;28;20430;-58
2021/11/10 00:31:55;;;;;;;16.30;2.13;;;28.90;28.40;;;;;;5056570;28;20065;-57
2021/11/10 00:34:22;;;;;;;32.55;3.40;;;28.80;28.60;;;;;;5057241;28;20176;-57
2021/11/10 00:36:48;;;;;;;19.02;3.47;;;28.70;28.10;;;;;;5085012;28;20158;-58
2021/11/10 00:39:14;;;;;;;23.85;3.05;;;28.60;28.60;;;;;;5054468;28;20070;-57
2021/11/10 00:41:41;;;;;;;21.63;2.45;;;28.50;28.10;;;;;;5053318;28;20124;-59
2021/11/10 00:44:07;;;;;;;20.83;2.40;;;28.40;27.80;;;;;;5079374;28;20081;-57
2021/11/10 00:46:34;;;;;;;20.88;2.47;;;28.30;27.50;;;;;;5045720;28;20438;-57
2021/11/10 00:49:00;;;;;;;36.70;3.00;;;28.30;27.10;;;;;;5061353;28;20150;-57
2021/11/10 00:51:28;;;;;;;24.73;2.45;;;28.30;27.40;;;;;;5062773;28;20096;-60
2021/11/10 00:53:55;;;;;;;16.90;2.00;;;28.20;27.50;;;;;;5034222;28;20159;-59
2021/11/10 00:56:21;;;;;;;17.65;2.85;;;28.10;27.30;;;;;;5080389;28;20573;-59
2021/11/10 00:58:48;;;;;;;23.77;2.58;;;28.00;27.70;;;;;;5056618;28;20069;-60
2021/11/10 01:01:15;;;;;;;23.98;2.45;;;27.90;27.60;;;;;;5055908;28;20115;-57
2021/11/10 01:03:42;;;;;;;16.90;2.58;;;27.90;27.60;;;;;;5067316;28;20530;-58
2021/11/10 01:06:08;;;;;;;13.18;2.20;;;27.80;27.70;;;;;;5084889;28;20484;-60
2021/11/10 01:08:35;;;;;;;15.52;2.45;;;27.80;27.90;;;;;;5056098;28;20498;-62
2021/11/10 01:11:02;;;;;;;23.38;2.97;;;27.70;27.80;;;;;;5072033;28;20138;-59
2021/11/10 01:13:29;;;;;;;15.77;2.75;;;27.60;27.90;;;;;;5073072;28;20534;-57
2021/11/10 01:15:55;;;;;;;22.60;3.22;;;27.60;28.50;;;;;;5076545;28;20104;-64
2021/11/10 01:18:21;;;;;;;15.20;2.85;;;27.50;28.40;;;;;;5053996;28;20434;-61
2021/11/10 01:20:48;;;;;;;25.15;3.22;;;27.40;28.50;;;;;;5059247;28;20623;-62
2021/11/10 01:23:15;;;;;;;31.27;3.40;;;27.30;28.50;;;;;;5074097;28;20092;-60
2021/11/10 01:25:41;;;;;;;27.90;2.70;;;27.30;28.70;;;;;;5055498;28;20095;-57
2021/11/10 01:28:09;;;;;;;20.30;3.40;;;27.20;28.70;;;;;;5039628;28;20075;-62
2021/11/10 01:30:36;;;;;;;22.98;3.65;;;27.20;28.90;;;;;;5068755;28;20087;-62
2021/11/10 01:33:03;;;;;;;25.70;3.08;;;27.10;29.20;;;;;;5051653;28;20640;-60
2021/11/10 01:35:29;;;;;;;26.58;3.42;;;27.00;29.30;;;;;;5053991;28;20099;-61
2021/11/10 01:37:55;;;;;;;23.83;3.80;;;27.00;29.40;;;;;;5036868;28;20505;-60
2021/11/10 01:40:22;;;;;;;34.00;4.10;;;27.00;29.60;;;;;;5051906;28;20652;-61
2021/11/10 01:42:51;;;;;;;25.15;3.90;;;26.90;29.60;;;;;;5052917;28;20133;-61
2021/11/10 01:45:19;;;;;;;29.05;3.63;;;26.80;30.10;;;;;;5062441;28;20581;-59
2021/11/10 01:47:46;;;;;;;27.67;3.72;;;26.80;30.20;;;;;;5079885;28;20073;-61
2021/11/10 01:50:15;;;;;;;23.70;3.28;;;26.70;30.70;;;;;;5060770;28;20085;-63
2021/11/10 01:52:43;;;;;;;28.25;3.50;;;26.60;31.00;;;;;;5061195;28;20073;-63
2021/11/10 01:55:12;;;;;;;29.27;3.38;;;26.60;30.70;;;;;;5058615;28;20163;-64
2021/11/10 01:57:38;;;;;;;21.92;3.08;;;26.60;31.00;;;;;;5042702;28;20072;-64
2021/11/10 02:00:13;;;;;;;32.45;3.95;;;26.50;31.80;;;;;;5058671;28;20140;-64
2021/11/10 02:02:43;;;;;;;33.65;3.63;;;26.50;31.10;;;;;;5059296;28;20075;-63
2021/11/10 02:05:11;;;;;;;23.60;4.13;;;26.40;31.60;;;;;;5061816;28;20085;-63
2021/11/10 02:07:38;;;;;;;40.42;4.10;;;26.30;31.70;;;;;;5046131;28;20083;-63
2021/11/10 02:10:07;;;;;;;29.30;3.22;;;26.30;31.20;;;;;;5038735;28;20071;-61
2021/11/10 02:12:34;;;;;;;25.42;4.40;;;26.20;31.60;;;;;;5054730;28;20197;-62
2021/11/10 02:15:04;;;;;;;26.75;4.40;;;26.20;31.80;;;;;;5083375;28;20085;-62
2021/11/10 02:17:30;;;;;;;20.02;3.30;;;26.10;31.80;;;;;;5058440;28;20168;-62
2021/11/10 02:19:57;;;;;;;18.63;3.60;;;26.10;32.30;;;;;;5069425;28;20566;-60
2021/11/10 02:22:23;;;;;;;17.25;3.80;;;26.10;33.00;;;;;;5071094;28;20083;-61
2021/11/10 02:24:51;;;;;;;15.23;2.90;;;26.00;33.30;;;;;;5072499;28;20081;-60
2021/11/10 02:27:21;;;;;;;22.58;5.95;;;26.00;33.80;;;;;;5071723;28;20087;-57
2021/11/10 02:29:49;;;;;;;23.88;3.47;;;25.90;34.50;;;;;;5089725;28;20101;-61
2021/11/10 02:32:17;;;;;;;21.15;3.45;;;25.80;34.80;;;;;;5034476;28;20077;-62
2021/11/10 02:34:45;;;;;;;19.63;3.03;;;25.80;35.30;;;;;;5053117;28;20083;-61
2021/11/10 02:37:14;;;;;;;17.75;2.92;;;25.70;35.60;;;;;;5061610;28;20179;-62
2021/11/10 02:39:41;;;;;;;17.10;2.55;;;25.70;36.30;;;;;;5052303;28;20107;-61
2021/11/10 02:42:08;;;;;;;18.55;2.58;;;25.70;36.70;;;;;;5054124;28;20106;-61
2021/11/10 02:44:35;;;;;;;18.58;2.72;;;25.60;37.20;;;;;;5062334;28;20130;-61
2021/11/10 02:47:04;;;;;;;17.90;2.80;;;25.60;37.80;;;;;;5038567;28;20530;-60
2021/11/10 02:49:30;;;;;;;20.70;2.58;;;25.60;38.20;;;;;;5062038;28;20076;-61
2021/11/10 02:52:08;;;;;;;20.33;2.53;;;25.50;38.60;;;;;;5035049;28;20550;-61
2021/11/10 02:54:39;;;;;;;19.98;2.70;;;25.50;38.90;;;;;;5052586;28;20122;-61
2021/11/10 02:57:07;;;;;;;18.55;2.38;;;25.40;39.70;;;;;;5051989;28;20100;-60
2021/11/10 02:59:34;;;;;;;21.10;2.95;;;25.40;39.70;;;;;;5054547;28;20446;-59
2021/11/10 03:02:02;;;;;;;21.23;2.67;;;25.40;40.10;;;;;;5071160;28;20212;-61
2021/11/10 03:04:31;;;;;;;31.90;2.92;;;25.30;40.30;;;;;;5064546;28;20093;-62
2021/11/10 03:06:58;;;;;;;27.58;3.17;;;25.30;40.70;;;;;;5070630;28;20081;-62
2021/11/10 03:09:27;;;;;;;37.17;3.03;;;25.30;41.20;;;;;;5064725;28;20069;-62
2021/11/10 03:11:59;;;;;;;20.83;2.78;;;25.20;41.50;;;;;;5070145;28;20069;-62
2021/11/10 03:14:27;;;;;;;27.92;3.05;;;25.20;41.80;;;;;;5070428;28;20077;-62
2021/11/10 03:16:54;;;;;;;24.55;2.83;;;25.10;42.00;;;;;;5053592;28;20077;-61
2021/11/10 03:19:21;;;;;;;26.88;3.58;;;25.10;41.90;;;;;;5056454;28;20481;-60
2021/11/10 03:21:47;;;;;;;30.98;3.08;;;25.10;42.20;;;;;;5065998;28;20085;-62
2021/11/10 03:24:15;;;;;;;21.52;2.63;;;25.10;42.40;;;;;;5058542;28;20089;-60
2021/11/10 03:26:42;;;;;;;15.68;2.63;;;25.00;42.40;;;;;;5039958;28;20499;-61
2021/11/10 03:29:09;;;;;;;17.25;2.38;;;25.00;42.70;;;;;;5055257;28;20077;-61
2021/11/10 03:31:38;;;;;;;9.65;2.10;;;25.00;43.00;;;;;;5066640;28;20087;-61
2021/11/10 03:34:07;;;;;;;12.18;2.22;;;25.00;43.30;;;;;;5074692;28;20089;-57
2021/11/10 03:36:34;;;;;;;15.82;2.15;;;25.00;43.70;;;;;;5073539;28;20077;-61
2021/11/10 03:39:02;;;;;;;21.15;2.47;;;25.00;44.00;;;;;;5054932;28;20184;-62
2021/11/10 03:41:28;;;;;;;13.52;2.67;;;24.90;44.20;;;;;;5074062;28;20072;-62
2021/11/10 03:43:55;;;;;;;16.80;2.47;;;24.90;44.50;;;;;;5074253;28;20101;-64
2021/11/10 03:46:23;;;;;;;16.73;2.33;;;24.90;44.60;;;;;;5074455;28;20157;-63
2021/11/10 03:48:50;;;;;;;11.70;1.95;;;24.90;44.90;;;;;;5044682;28;20092;-62
2021/11/10 03:51:17;;;;;;;12.40;2.30;;;24.80;44.90;;;;;;5039000;28;20093;-61
2021/11/10 03:53:44;;;;;;;11.30;2.17;;;24.80;45.40;;;;;;5063484;28;20088;-62
2021/11/10 03:56:11;;;;;;;16.08;2.38;;;24.80;45.30;;;;;;5067815;28;20476;-58
2021/11/10 03:58:38;;;;;;;10.98;1.90;;;24.80;45.20;;;;;;5074445;28;20084;-61
2021/11/10 04:01:05;;;;;;;10.07;2.58;;;24.80;45.40;;;;;;5073813;28;20140;-63
2021/11/10 04:03:33;;;;;;;12.85;1.83;;;24.70;45.20;;;;;;5074139;28;20119;-62
2021/11/10 04:06:00;;;;;;;14.30;2.10;;;24.70;45.40;;;;;;5074136;28;20079;-63
2021/11/10 04:08:26;;;;;;;10.18;2.17;;;24.70;45.20;;;;;;5085706;28;20100;-63
2021/11/10 04:10:53;;;;;;;10.48;2.15;;;24.70;45.40;;;;;;5059652;28;20655;-62
2021/11/10 04:13:19;;;;;;;6.65;1.30;;;24.70;45.30;;;;;;5074144;28;20139;-62
2021/11/10 04:15:46;;;;;;;4.68;1.60;;;24.70;45.10;;;;;;5074039;28;20126;-62
2021/11/10 04:18:13;;;;;;;7.85;1.30;;;24.60;45.00;;;;;;5074154;28;20084;-62
2021/11/10 04:20:39;;;;;;;5.30;1.60;;;24.60;44.80;;;;;;5054049;28;20160;-64
2021/11/10 04:23:06;;;;;;;8.98;1.40;;;24.50;44.70;;;;;;5054656;28;20069;-64
2021/11/10 04:25:32;;;;;;;10.73;2.03;;;24.60;44.50;;;;;;5076476;28;20138;-64
2021/11/10 04:27:58;;;;;;;9.80;1.67;;;24.50;44.50;;;;;;5073874;28;20585;-64
2021/11/10 04:30:25;;;;;;;8.35;1.58;;;24.50;44.50;;;;;;5072670;28;20546;-65
2021/11/10 04:32:51;;;;;;;7.22;1.73;;;24.50;44.30;;;;;;5071773;28;20081;-64
2021/11/10 04:35:18;;;;;;;14.18;1.80;;;24.50;44.30;;;;;;5089052;28;20096;-63
2021/11/10 04:37:44;;;;;;;7.70;1.90;;;24.50;44.50;;;;;;5077135;28;20081;-63
2021/11/10 04:40:12;;;;;;;9.95;2.25;;;24.50;44.40;;;;;;5073579;28;20112;-63
2021/11/10 04:42:40;;;;;;;7.65;1.50;;;24.40;44.20;;;;;;5057099;28;20081;-64
2021/11/10 04:45:11;;;;;;;9.10;1.67;;;24.40;44.30;;;;;;5073135;28;20092;-65
2021/11/10 04:47:38;;;;;;;12.52;1.88;;;24.40;44.20;;;;;;5038502;28;20073;-65
2021/11/10 04:50:06;;;;;;;6.13;1.65;;;24.40;44.40;;;;;;5039804;28;20454;-63
2021/11/10 04:52:35;;;;;;;8.48;2.03;;;24.30;44.20;;;;;;5047319;28;20088;-64
2021/11/10 04:55:02;;;;;;;8.05;2.10;;;24.30;44.40;;;;;;5072851;28;20168;-63
2021/11/10 04:57:30;;;;;;;10.75;2.00;;;24.30;44.20;;;;;;5056656;28;20076;-63
2021/11/10 04:59:56;;;;;;;8.20;2.08;;;24.30;44.40;;;;;;5050714;28;20119;-64
2021/11/10 05:02:23;;;;;;;8.35;1.60;;;24.30;44.60;;;;;;5072704;28;20576;-63
2021/11/10 05:04:51;;;;;;;10.27;1.70;;;24.20;44.50;;;;;;5072861;28;20128;-64
2021/11/10 05:07:18;;;;;;;9.30;1.85;;;24.10;44.90;;;;;;5049669;28;20080;-62
2021/11/10 05:09:45;;;;;;;4.43;1.42;;;24.10;45.10;;;;;;5037728;28;20092;-64
2021/11/10 05:12:12;;;;;;;6.60;1.48;;;24.00;45.30;;;;;;5052770;28;20069;-62
2021/11/10 05:14:38;;;;;;;3.70;1.33;;;23.90;45.40;;;;;;5072926;28;20102;-62
2021/11/10 05:17:05;;;;;;;6.03;1.75;;;23.90;45.70;;;;;;5054507;28;20099;-64
2021/11/10 05:19:31;;;;;;;4.85;2.80;;;23.80;45.90;;;;;;5090267;28;20625;-65
2021/11/10 05:21:58;;;;;;;11.70;2.42;;;23.70;70.20;;;;;;5072872;28;20171;-64
2021/11/10 05:24:26;;;;;;;9.30;2.05;;;23.70;46.20;;;;;;5073110;28;20081;-60
2021/11/10 05:26:53;;;;;;;3.88;1.67;;;23.70;46.60;;;;;;5072680;28;20097;-61
2021/11/10 05:29:20;;;;;;;10.52;2.13;;;23.70;46.60;;;;;;5072405;28;20084;-61
2021/11/10 05:31:46;;;;;;;13.07;2.47;;;23.70;46.60;;;;;;5057796;28;20168;-62
2021/11/10 05:34:13;;;;;;;16.70;3.33;;;23.70;46.90;;;;;;5052425;28;20073;-60
2021/11/10 05:36:39;;;;;;;4.70;1.70;;;23.60;47.20;;;;;;5054315;28;20076;-62
2021/11/10 05:39:09;;;;;;;9.32;1.58;;;23.60;47.30;;;;;;5053859;28;20200;-63
2021/11/10 05:41:36;;;;;;;9.93;1.75;;;23.50;47.30;;;;;;5088368;28;20089;-63
2021/11/10 05:44:02;;;;;;;9.30;1.55;;;23.60;47.40;;;;;;5072079;28;20536;-62
2021/11/10 05:46:29;;;;;;;7.30;1.50;;;23.50;47.80;;;;;;5071968;28;20156;-62
2021/11/10 05:48:55;;;;;;;13.48;1.83;;;23.50;48.20;;;;;;5072119;28;20084;-63
2021/11/10 05:51:22;;;;;;;17.52;1.77;;;23.40;48.00;;;;;;5072148;28;20494;-62
2021/11/10 05:53:50;;;;;;;8.05;1.73;;;23.40;47.70;;;;;;5072336;28;20535;-60
2021/11/10 05:56:21;;;;;;;7.03;1.50;;;23.40;48.00;;;;;;5056594;28;20093;-63
2021/11/10 05:58:49;;;;;;;7.63;2.08;;;23.30;48.60;;;;;;5086389;28;20077;-62
2021/11/10 06:01:16;;;;;;;12.45;1.90;;;23.20;48.60;;;;;;5088839;28;20157;-62
2021/11/10 06:03:42;;;;;;;9.90;1.75;;;23.20;48.80;;;;;;5071921;28;20104;-61
2021/11/10 06:06:09;;;;;;;11.65;2.03;;;23.10;49.10;;;;;;5071842;28;20075;-61
2021/11/10 06:08:37;;;;;;;10.35;2.00;;;23.00;49.30;;;;;;5071994;28;20068;-61
2021/11/10 06:11:05;;;;;;;7.15;1.75;;;22.90;49.70;;;;;;5071872;28;20088;-62
2021/11/10 06:13:32;;;;;;;11.55;1.90;;;22.90;49.90;;;;;;5071605;28;20096;-61
2021/11/10 06:15:58;;;;;;;11.10;1.80;;;22.80;50.20;;;;;;5052453;28;20080;-60
2021/11/10 06:18:25;;;;;;;13.77;1.90;;;22.70;50.30;;;;;;5068589;28;20504;-62
2021/11/10 06:20:51;;;;;;;10.10;2.13;;;22.70;50.60;;;;;;5071671;28;20133;-64
2021/11/10 06:23:18;;;;;;;6.72;2.15;;;22.60;51.00;;;;;;5070974;28;20125;-62
2021/11/10 06:25:44;;;;;;;11.18;2.25;;;22.60;50.80;;;;;;5090633;28;20828;-63
2021/11/10 06:28:10;;;;;;;22.73;2.83;;;22.60;51.50;;;;;;5089897;28;20065;-60
2021/11/10 06:30:37;;;;;;;13.77;2.47;;;22.50;51.70;;;;;;5089651;28;20079;-62
2021/11/10 06:33:03;;;;;;;18.33;2.70;;;22.50;51.90;;;;;;5055310;28;21138;-63
2021/11/10 06:35:30;;;;;;;18.13;2.17;;;22.50;52.50;;;;;;5071601;28;20079;-60
2021/11/10 06:37:56;;;;;;;16.92;2.80;;;22.40;52.50;;;;;;5040126;28;20089;-61
2021/11/10 06:40:23;;;;;;;23.17;3.60;;;22.40;52.70;;;;;;5053137;28;20081;-63
2021/11/10 06:42:50;;;;;;;11.52;2.47;;;22.40;52.90;;;;;;5072152;28;21851;-60
2021/11/10 06:45:17;;;;;;;21.55;2.83;;;22.30;53.00;;;;;;5071187;28;20146;-59
2021/11/10 06:47:43;;;;;;;11.27;2.10;;;22.30;51.80;;;;;;5071575;28;20107;-62
2021/11/10 06:50:11;;;;;;;13.48;2.50;;;22.30;51.80;;;;;;5071192;28;20493;-60
2021/11/10 06:52:38;;;;;;;7.75;2.00;;;22.20;51.60;;;;;;5073188;28;20156;-58
2021/11/10 06:55:05;;;;;;;11.75;2.92;;;22.20;52.50;;;;;;5076368;28;20603;-58
2021/11/10 06:57:32;;;;;;;10.73;3.05;;;22.10;52.70;;;;;;5051184;28;20081;-58
2021/11/10 06:59:59;;;;;;;6.93;2.45;;;22.10;52.70;;;;;;5038930;28;20101;-59
2021/11/10 07:02:25;;;;;;;5.35;2.13;;;22.20;52.60;;;;;;5066042;28;20072;-59
2021/11/10 07:04:52;;;;;;;9.38;2.13;;;22.10;52.30;;;;;;5065687;28;20183;-57
2021/11/10 07:07:19;;;;;;;11.98;2.35;;;22.10;52.40;;;;;;5054285;28;20069;-57
2021/11/10 07:09:45;;;;;;;11.80;2.65;;;22.10;52.60;;;;;;5066159;28;20133;-57
2021/11/10 07:12:12;;;;;;;10.82;2.40;;;22.10;52.60;;;;;;5065580;28;20077;-60
2021/11/10 07:14:38;;;;;;;14.70;2.53;;;22.10;53.00;;;;;;5065666;28;20083;-59
2021/11/10 07:17:05;;;;;;;16.30;2.78;;;22.10;53.20;;;;;;5082283;28;20465;-59
2021/11/10 07:19:31;;;;;;;15.98;3.33;;;22.00;53.40;;;;;;5048792;28;20130;-61
2021/11/10 07:21:58;;;;;;;12.32;3.42;;;22.00;53.60;;;;;;5066564;28;20465;-62
2021/11/10 07:24:25;;;;;;;8.52;3.20;;;22.00;53.80;;;;;;5047840;28;20189;-62
2021/11/10 07:26:51;;;;;;;9.80;2.63;;;22.00;54.10;;;;;;5064671;28;20072;-62
2021/11/10 07:29:17;;;;;;;12.32;2.38;;;22.00;54.30;;;;;;5065680;28;20091;-60
2021/11/10 07:31:44;;;;;;;15.82;2.60;;;21.90;54.40;;;;;;5065276;28;20539;-61
2021/11/10 07:34:10;;;;;;;10.00;1.88;;;21.90;54.60;;;;;;5064843;28;20081;-60
2021/11/10 07:36:36;;;;;;;12.10;1.83;;;21.80;55.20;;;;;;5063959;28;20080;-58
2021/11/10 07:39:03;;;;;;;19.67;2.40;;;21.80;55.40;;;;;;5063549;28;20073;-59
2021/11/10 07:41:33;;;;;;;15.70;2.15;;;21.80;55.40;;;;;;5054595;28;20497;-58
2021/11/10 07:44:01;;;;;;;16.95;2.55;;;21.80;55.20;;;;;;5063615;28;20180;-63
2021/11/10 07:46:34;;;;;;;9.90;2.22;;;21.80;55.20;;;;;;5063642;28;20069;-59
2021/11/10 07:49:01;;;;;;;16.73;2.63;;;21.80;55.20;;;;;;5066014;28;20494;-62
2021/11/10 07:51:27;;;;;;;23.00;2.63;;;21.80;55.30;;;;;;5064143;28;20089;-61
2021/11/10 07:53:54;;;;;;;11.23;2.28;;;21.80;55.30;;;;;;5063764;28;20079;-58
2021/11/10 07:56:22;;;;;;;12.82;2.05;;;21.80;55.40;;;;;;5066410;28;20274;-60
2021/11/10 07:58:49;;;;;;;17.23;2.47;;;21.80;55.80;;;;;;5065314;28;20072;-62
2021/11/10 08:01:16;;;;;;;13.48;2.35;;;21.70;56.00;;;;;;5066297;28;20108;-60
2021/11/10 08:03:43;;;;;;;10.90;2.05;;;21.70;56.00;;;;;;5055231;28;20577;-61
2021/11/10 08:06:09;;;;;;;15.57;2.38;;;21.70;56.50;;;;;;5063995;28;20073;-61
2021/11/10 08:08:36;;;;;;;14.27;3.17;;;21.60;56.50;;;;;;5064902;28;20076;-61
2021/11/10 08:11:04;;;;;;;15.05;2.33;;;21.60;57.20;;;;;;5063263;28;20092;-61
2021/11/10 08:13:31;;;;;;;19.55;2.03;;;21.50;57.30;;;;;;5065387;28;20126;-60
2021/11/10 08:15:59;;;;;;;13.45;2.53;;;21.50;58.00;;;;;;5080942;28;20115;-60
2021/11/10 08:18:26;;;;;;;14.43;2.50;;;21.50;58.10;;;;;;5063566;28;20478;-61
2021/11/10 08:20:53;;;;;;;12.27;2.42;;;21.40;58.90;;;;;;5063709;28;20084;-60
2021/11/10 08:23:20;;;;;;;29.73;2.97;;;21.40;59.10;;;;;;5046749;28;20126;-62
2021/11/10 08:25:51;;;;;;;12.02;3.28;;;21.30;58.90;;;;;;5064308;28;20494;-60
2021/11/10 08:28:19;;;;;;;11.57;2.33;;;21.20;60.00;;;;;;5062745;28;20085;-61
2021/11/10 08:30:46;;;;;;;15.90;2.47;;;21.20;60.30;;;;;;5049622;28;20171;-62
2021/11/10 08:33:12;;;;;;;14.50;2.83;;;21.20;60.20;;;;;;5064401;28;20073;-60
2021/11/10 08:35:39;;;;;;;20.77;2.47;;;21.20;60.60;;;;;;5061831;28;20561;-60
2021/11/10 08:38:06;;;;;;;14.40;2.85;;;21.20;61.50;;;;;;5065811;28;20488;-62
2021/11/10 08:40:32;;;;;;;10.95;2.83;;;21.10;61.60;;;;;;5062518;28;20545;-60
2021/11/10 08:42:59;;;;;;;18.77;2.92;;;21.10;61.70;;;;;;5064257;28;20076;-60
2021/11/10 08:45:29;;;;;;;12.88;3.25;;;21.00;61.30;;;;;;5063938;28;20089;-61
2021/11/10 08:47:57;;;;;;;12.32;3.30;;;20.90;62.70;;;;;;5081732;28;20521;-60
2021/11/10 08:50:26;;;;;;;19.40;3.67;;;20.90;62.40;;;;;;5062931;28;20108;-61
2021/11/10 08:52:54;;;;;;;11.55;3.10;;;20.70;62.70;;;;;;5064417;28;20103;-61
2021/11/10 08:55:21;;;;;;;12.43;2.72;;;20.70;63.40;;;;;;5062373;28;20168;-61
2021/11/10 08:57:49;;;;;;;13.02;2.75;;;20.80;63.30;;;;;;5047338;28;20091;-62
2021/11/10 09:00:21;;;;;;;14.18;2.60;;;20.80;63.10;;;;;;5047275;28;20518;-59
2021/11/10 09:02:47;;;;;;;17.38;3.45;;;20.80;62.40;;;;;;5081596;28;20076;-60
2021/11/10 09:05:15;;;;;;;20.58;3.05;;;20.80;63.40;;;;;;5080155;28;20081;-57
2021/11/10 09:07:44;;;;;;;15.68;2.97;;;20.80;64.30;;;;;;5035899;28;20072;-60
2021/11/10 09:10:13;;;;;;;6.90;2.47;;;20.80;63.30;;;;;;5064244;28;20073;-63
2021/11/10 09:12:40;;;;;;;17.42;2.60;;;20.80;63.10;;;;;;5063034;28;20094;-61
2021/11/10 09:15:09;;;;;;;14.10;2.40;;;20.90;63.40;;;;;;5045559;28;20073;-61
2021/11/10 09:17:36;;;;;;;9.82;2.55;;;20.90;63.40;;;;;;5081878;28;20126;-62
2021/11/10 09:20:08;;;;;;;10.02;2.60;;;20.90;64.00;;;;;;5080556;28;20160;-62
2021/11/10 09:22:36;;;;;;;11.85;2.58;;;20.90;64.50;;;;;;5063418;28;20498;-60
2021/11/10 09:25:03;;;;;;;16.73;3.53;;;20.90;63.50;;;;;;5063230;28;20282;-62
2021/11/10 09:27:30;;;;;;;9.50;3.05;;;20.80;62.90;;;;;;5063788;28;20777;-60
2021/11/10 09:29:56;;;;;;;14.60;2.83;;;20.80;63.10;;;;;;5046722;28;20522;-61
2021/11/10 09:32:22;;;;;;;;;;;20.70;63.30;;;;;;5063511;28;20430;-59
2021/11/10 09:34:49;;;;;;;8.98;2.90;;;20.70;62.80;;;;;;5045547;28;19957;-61
2021/11/10 09:37:15;;;;;;;11.05;2.70;;;20.70;62.40;;;;;;5044644;28;20081;-60
2021/11/10 09:39:41;;;;;;;6.07;2.55;;;20.70;62.00;;;;;;5061996;28;20077;-58
2021/11/10 09:42:08;;;;;;;;;;;20.70;61.50;;;;;;5046436;28;20129;-58
2021/11/10 09:44:34;;;;;;;10.07;2.90;;;20.70;61.60;;;;;;5062347;28;20307;-57
2021/11/10 09:47:04;;;;;;;11.93;2.72;;;20.70;61.40;;;;;;5063466;28;20473;-57
2021/11/10 09:49:30;;;;;;;10.95;2.58;;;20.70;61.30;;;;;;5045511;28;20473;-59
2021/11/10 09:51:59;;;;;;;10.05;2.88;;;20.70;61.20;;;;;;5047383;28;20077;-58
2021/11/10 09:54:25;;;;;;;7.57;2.53;;;20.80;61.30;;;;;;5061338;28;20416;-60
2021/11/10 09:56:54;;;;;;;8.57;3.25;;;20.80;61.20;;;;;;5062733;28;20138;-61
2021/11/10 09:59:21;;;;;;;8.48;2.78;;;20.80;61.00;;;;;;5061380;28;20158;-58
2021/11/10 10:01:48;;;;;;;9.15;2.70;;;20.80;60.90;;;;;;5062948;28;20106;-59
2021/11/10 10:04:15;;;;;;;10.27;3.03;;;20.80;60.90;;;;;;5062337;28;20187;-60
2021/11/10 10:06:42;;;;;;;8.18;3.15;;;20.80;61.10;;;;;;5060576;28;20073;-60
2021/11/10 10:09:09;;;;;;;12.30;2.78;;;20.70;61.20;;;;;;5080367;28;20159;-59
2021/11/10 10:11:35;;;;;;;6.35;2.80;;;20.80;61.60;;;;;;5062489;28;20586;-59
2021/11/10 10:14:02;;;;;;;8.88;2.58;;;20.80;61.60;;;;;;5060937;28;20500;-59
2021/11/10 10:16:30;;;;;;;9.77;2.97;;;20.70;62.10;;;;;;5080942;28;20073;-61
2021/11/10 10:19:13;;;;;;;6.15;2.45;;;20.70;62.60;;;;;;5061026;28;20526;-60
2021/11/10 10:21:40;;;;;;;9.63;2.90;;;20.70;63.10;;;;;;5046135;28;20145;-60
2021/11/10 10:24:15;;;;;;;8.95;3.20;;;20.60;63.20;;;;;;5062833;28;20108;-60
2021/11/10 10:26:42;;;;;;;8.85;3.47;;;20.50;63.60;;;;;;5080898;28;20076;-59
2021/11/10 10:29:10;;;;;;;10.02;3.80;;;20.40;63.80;;;;;;5061025;28;20073;-59
2021/11/10 10:31:39;;;;;;;11.32;4.78;;;20.30;64.50;;;;;;5079733;28;20510;-59
2021/11/10 10:34:12;;;;;;;17.90;5.68;;;20.30;65.80;;;;;;5044236;28;20077;-57
2021/11/10 10:36:41;;;;;;;15.02;5.95;;;20.30;67.40;;;;;;5046306;28;20173;-61
2021/11/10 10:39:17;;;;;;;18.52;7.07;;;20.30;68.40;;;;;;5061346;28;20081;-60
2021/11/10 10:41:46;;;;;;;17.95;6.32;;;20.30;69.10;;;;;;5060253;28;20073;-60
2021/11/10 10:44:30;;;;;;;22.25;7.53;;;20.30;68.70;;;;;;5060893;28;20085;-60
2021/11/10 10:47:01;;;;;;;21.42;8.48;;;20.20;69.70;;;;;;5047522;28;20104;-61
2021/11/10 10:49:39;;;;;;;19.23;8.82;;;20.30;72.40;;;;;;5045602;28;20105;-60
2021/11/10 10:52:16;;;;;;;17.20;8.88;;;20.20;73.00;;;;;;5061528;28;20407;-60
2021/11/10 10:54:43;;;;;;;23.92;8.73;;;20.20;73.50;;;;;;5045797;28;20079;-61
2021/11/10 10:57:11;;;;;;;26.98;8.38;;;20.20;73.90;;;;;;5062062;28;20263;-60
2021/11/10 10:59:37;;;;;;;24.90;8.85;;;20.20;74.60;;;;;;5043789;28;20551;-59
2021/11/10 11:02:07;;;;;;;19.83;7.82;;;20.20;75.20;;;;;;5060172;28;20100;-60
2021/11/10 11:04:35;;;;;;;20.63;9.18;;;20.20;75.70;;;;;;5060392;28;20146;-57
2021/11/10 11:07:06;;;;;;;21.35;9.40;;;20.20;76.70;;;;;;5062406;28;20492;-55
2021/11/10 11:09:40;;;;;;;23.77;10.65;;;20.20;77.80;;;;;;5060718;28;20088;-58
2021/11/10 11:12:17;;;;;;;21.30;10.02;;;20.20;79.30;;;;;;5060401;28;20379;-59
2021/11/10 11:15:02;;;;;;;20.45;11.30;;;19.80;78.90;;;;;;5062362;28;20599;-57
2021/11/10 11:17:30;;;;;;;26.27;11.68;;;20.10;80.40;;;;;;5079080;28;20069;-59
2021/11/10 11:20:13;;;;;;;24.23;12.48;;;20.10;81.50;;;;;;5062186;28;20168;-59
2021/11/10 11:22:46;;;;;;;25.08;13.35;;;20.00;82.20;;;;;;5062166;28;20160;-60
2021/11/10 11:25:27;;;;;;;33.85;14.00;;;20.00;83.40;;;;;;5062109;28;20100;-63
2021/11/10 11:27:54;;;;;;;33.38;12.23;;;19.90;85.00;;;;;;5063244;28;20123;-60
2021/11/10 11:30:22;;;;;;;32.45;14.48;;;19.90;86.20;;;;;;5060167;28;20123;-59
2021/11/10 11:32:50;;;;;;;24.77;13.57;;;19.90;87.30;;;;;;5053475;28;20072;-60
2021/11/10 11:35:25;;;;;;;29.52;15.20;;;19.80;87.70;;;;;;5079492;28;20108;-61
2021/11/10 11:37:54;;;;;;;36.45;16.02;;;19.80;88.90;;;;;;5060466;28;21369;-61
2021/11/10 11:40:22;;;;;;;40.22;15.35;;;19.80;89.90;;;;;;5045932;28;20101;-60
2021/11/10 11:42:50;;;;;;;35.42;15.55;;;19.70;90.60;;;;;;5065713;28;20073;-60
2021/11/10 11:45:17;;;;;;;33.05;15.07;;;19.70;91.20;;;;;;5049707;28;20631;-63
2021/11/10 11:47:47;;;;;;;32.42;15.98;;;19.60;91.40;;;;;;5064182;28;20097;-62
2021/11/10 11:50:14;;;;;;;30.88;14.90;;;19.60;91.70;;;;;;5048955;28;20562;-59
2021/11/10 11:52:44;;;;;;;26.10;15.40;;;19.60;92.00;;;;;;5063888;28;20097;-61
2021/11/10 11:55:23;;;;;;;37.33;16.02;;;19.50;92.40;;;;;;5048346;28;20435;-61
2021/11/10 11:58:07;;;;;;;44.65;16.98;;;19.50;93.10;;;;;;5064377;28;20089;-61
2021/11/10 12:00:51;;;;;;;32.67;17.10;;;19.50;93.70;;;;;;5063464;28;20146;-61
2021/11/10 12:03:22;;;;;;;36.88;18.27;;;19.50;94.30;;;;;;5064692;28;20085;-60
2021/11/10 12:06:02;;;;;;;41.72;17.75;;;19.40;95.40;;;;;;5047417;28;20442;-60
2021/11/10 12:08:48;;;;;;;40.75;17.70;;;19.40;95.50;;;;;;5064976;28;20088;-58
2021/11/10 12:11:23;;;;;;;35.90;17.17;;;19.40;95.80;;;;;;5062617;28;20429;-62
2021/11/10 12:14:37;;;;;;;27.95;15.13;;;19.40;96.20;;;;;;5081656;28;20073;-57
2021/11/10 12:17:03;;;;;;;34.30;17.52;;;19.40;96.20;;;;;;5065079;28;20565;-63
2021/11/10 12:19:39;;;;;;;43.97;17.48;;;19.30;96.30;;;;;;5064238;28;20106;-58
2021/11/10 12:22:20;;;;;;;35.72;16.88;;;19.30;96.60;;;;;;5063157;28;20073;-63
2021/11/10 12:25:10;;;;;;;40.67;18.75;;;19.30;96.90;;;;;;5036725;28;20093;-62
2021/11/10 12:27:42;;;;;;;42.53;18.67;;;19.20;97.30;;;;;;5060322;28;20561;-60
2021/11/10 12:30:28;;;;;;;37.22;18.35;;;19.20;97.90;;;;;;5048519;28;20081;-62
2021/11/10 12:32:58;;;;;;;39.83;18.60;;;19.10;98.20;;;;;;5082306;28;20077;-63
2021/11/10 12:35:33;;;;;;;32.80;17.77;;;19.10;98.70;;;;;;5063172;28;20526;-60
2021/11/10 12:38:01;;;;;;;39.10;18.52;;;19.10;98.70;;;;;;5063725;28;20083;-61
2021/11/10 12:40:31;;;;;;;33.78;17.40;;;19.10;98.90;;;;;;5046585;28;20104;-62
2021/11/10 12:43:00;;;;;;;47.47;18.10;;;19.00;99.10;;;;;;5062633;28;20453;-61